sensor_id;sensor_type;location;lat;lon;timestamp;P1;durP1;ratioP1;P2;durP2;ratioP2
23898;SDS011;20544;50.018;20.010;2023-02-08T00:02:45;184.40;;;108.43;;
23898;SDS011;20544;50.018;20.010;2023-02-08T00:06:02;187.45;;;109.20;;
23898;SDS011;20544;50.018;20.010;2023-02-08T00:09:25;177.48;;;105.60;;
23898;SDS011;20544;50.018;20.010;2023-02-08T00:12:42;187.05;;;107.18;;
23898;SDS011;20544;50.018;20.010;2023-02-08T00:15:58;182.30;;;105.20;;
23898;SDS011;20544;50.018;20.010;2023-02-08T00:19:17;180.98;;;105.75;;
23898;SDS011;20544;50.018;20.010;2023-02-08T00:22:33;177.55;;;106.35;;
23898;SDS011;20544;50.018;20.010;2023-02-08T00:25:50;185.45;;;109.75;;
23898;SDS011;20544;50.018;20.010;2023-02-08T00:29:06;175.35;;;104.93;;
23898;SDS011;20544;50.018;20.010;2023-02-08T00:32:23;197.58;;;109.45;;
23898;SDS011;20544;50.018;20.010;2023-02-08T00:35:40;174.48;;;104.53;;
23898;SDS011;20544;50.018;20.010;2023-02-08T00:38:57;177.75;;;102.30;;
23898;SDS011;20544;50.018;20.010;2023-02-08T00:42:13;172.50;;;102.88;;
23898;SDS011;20544;50.018;20.010;2023-02-08T00:45:30;172.60;;;100.48;;
23898;SDS011;20544;50.018;20.010;2023-02-08T00:48:47;177.55;;;101.38;;
23898;SDS011;20544;50.018;20.010;2023-02-08T00:52:04;175.05;;;101.15;;
23898;SDS011;20544;50.018;20.010;2023-02-08T00:55:21;173.48;;;102.88;;
23898;SDS011;20544;50.018;20.010;2023-02-08T00:58:38;179.55;;;103.33;;
23898;SDS011;20544;50.018;20.010;2023-02-08T01:01:55;175.83;;;102.60;;
23898;SDS011;20544;50.018;20.010;2023-02-08T01:05:12;175.08;;;98.83;;
23898;SDS011;20544;50.018;20.010;2023-02-08T01:08:29;175.83;;;102.08;;
23898;SDS011;20544;50.018;20.010;2023-02-08T01:11:46;168.20;;;97.18;;
23898;SDS011;20544;50.018;20.010;2023-02-08T01:15:02;167.65;;;98.30;;
23898;SDS011;20544;50.018;20.010;2023-02-08T01:18:20;165.25;;;96.55;;
23898;SDS011;20544;50.018;20.010;2023-02-08T01:21:38;168.10;;;97.60;;
23898;SDS011;20544;50.018;20.010;2023-02-08T01:24:55;172.40;;;100.10;;
23898;SDS011;20544;50.018;20.010;2023-02-08T01:28:11;173.60;;;98.83;;
23898;SDS011;20544;50.018;20.010;2023-02-08T01:31:28;172.50;;;99.68;;
23898;SDS011;20544;50.018;20.010;2023-02-08T01:34:46;174.28;;;100.93;;
23898;SDS011;20544;50.018;20.010;2023-02-08T01:38:03;169.80;;;96.50;;
23898;SDS011;20544;50.018;20.010;2023-02-08T01:41:20;157.83;;;95.58;;
23898;SDS011;20544;50.018;20.010;2023-02-08T01:48:37;156.53;;;91.33;;
23898;SDS011;20544;50.018;20.010;2023-02-08T01:51:56;167.13;;;97.15;;
23898;SDS011;20544;50.018;20.010;2023-02-08T01:55:16;158.83;;;92.50;;
23898;SDS011;20544;50.018;20.010;2023-02-08T01:58:38;161.18;;;94.75;;
23898;SDS011;20544;50.018;20.010;2023-02-08T02:01:57;167.80;;;97.95;;
23898;SDS011;20544;50.018;20.010;2023-02-08T02:05:14;169.00;;;98.15;;
23898;SDS011;20544;50.018;20.010;2023-02-08T02:08:32;156.82;;;93.18;;
23898;SDS011;20544;50.018;20.010;2023-02-08T02:11:49;154.53;;;92.45;;
23898;SDS011;20544;50.018;20.010;2023-02-08T02:15:08;165.10;;;95.60;;
23898;SDS011;20544;50.018;20.010;2023-02-08T02:18:26;157.80;;;93.85;;
23898;SDS011;20544;50.018;20.010;2023-02-08T02:21:48;172.95;;;99.10;;
23898;SDS011;20544;50.018;20.010;2023-02-08T02:25:21;167.38;;;96.95;;
23898;SDS011;20544;50.018;20.010;2023-02-08T02:33:22;156.13;;;92.28;;
23898;SDS011;20544;50.018;20.010;2023-02-08T02:36:50;168.05;;;94.55;;
23898;SDS011;20544;50.018;20.010;2023-02-08T02:40:11;166.28;;;95.63;;
23898;SDS011;20544;50.018;20.010;2023-02-08T02:43:35;161.60;;;95.08;;
23898;SDS011;20544;50.018;20.010;2023-02-08T02:46:59;159.40;;;92.50;;
23898;SDS011;20544;50.018;20.010;2023-02-08T02:50:21;158.68;;;90.38;;
23898;SDS011;20544;50.018;20.010;2023-02-08T02:53:43;159.20;;;91.78;;
23898;SDS011;20544;50.018;20.010;2023-02-08T02:57:05;155.95;;;91.33;;
23898;SDS011;20544;50.018;20.010;2023-02-08T03:00:25;158.28;;;91.28;;
23898;SDS011;20544;50.018;20.010;2023-02-08T03:03:44;155.80;;;90.18;;
23898;SDS011;20544;50.018;20.010;2023-02-08T03:07:02;163.25;;;94.08;;
23898;SDS011;20544;50.018;20.010;2023-02-08T03:10:24;154.53;;;91.65;;
23898;SDS011;20544;50.018;20.010;2023-02-08T03:14:02;162.55;;;93.90;;
23898;SDS011;20544;50.018;20.010;2023-02-08T03:17:43;165.05;;;93.53;;
23898;SDS011;20544;50.018;20.010;2023-02-08T03:24:27;150.73;;;86.85;;
23898;SDS011;20544;50.018;20.010;2023-02-08T03:27:51;145.13;;;83.25;;
23898;SDS011;20544;50.018;20.010;2023-02-08T03:31:13;133.80;;;80.50;;
23898;SDS011;20544;50.018;20.010;2023-02-08T03:34:34;142.15;;;83.70;;
23898;SDS011;20544;50.018;20.010;2023-02-08T03:37:58;137.45;;;80.03;;
23898;SDS011;20544;50.018;20.010;2023-02-08T03:41:19;133.30;;;78.30;;
23898;SDS011;20544;50.018;20.010;2023-02-08T03:44:39;130.93;;;78.60;;
23898;SDS011;20544;50.018;20.010;2023-02-08T03:47:59;132.48;;;76.70;;
23898;SDS011;20544;50.018;20.010;2023-02-08T03:51:19;129.93;;;74.08;;
23898;SDS011;20544;50.018;20.010;2023-02-08T03:54:40;128.08;;;75.38;;
23898;SDS011;20544;50.018;20.010;2023-02-08T03:58:02;114.23;;;67.43;;
23898;SDS011;20544;50.018;20.010;2023-02-08T04:01:22;108.08;;;62.65;;
23898;SDS011;20544;50.018;20.010;2023-02-08T04:04:43;109.25;;;65.08;;
23898;SDS011;20544;50.018;20.010;2023-02-08T04:08:04;118.83;;;67.45;;
23898;SDS011;20544;50.018;20.010;2023-02-08T04:11:20;111.75;;;67.78;;
23898;SDS011;20544;50.018;20.010;2023-02-08T04:14:37;116.95;;;70.98;;
23898;SDS011;20544;50.018;20.010;2023-02-08T04:17:53;134.70;;;75.33;;
23898;SDS011;20544;50.018;20.010;2023-02-08T04:21:09;129.38;;;74.60;;
23898;SDS011;20544;50.018;20.010;2023-02-08T04:24:25;119.23;;;69.25;;
23898;SDS011;20544;50.018;20.010;2023-02-08T04:27:41;116.65;;;66.90;;
23898;SDS011;20544;50.018;20.010;2023-02-08T04:30:58;123.23;;;70.30;;
23898;SDS011;20544;50.018;20.010;2023-02-08T04:34:14;120.53;;;69.30;;
23898;SDS011;20544;50.018;20.010;2023-02-08T04:37:31;118.63;;;68.73;;
23898;SDS011;20544;50.018;20.010;2023-02-08T04:40:48;109.63;;;64.05;;
23898;SDS011;20544;50.018;20.010;2023-02-08T04:44:04;105.48;;;61.30;;
23898;SDS011;20544;50.018;20.010;2023-02-08T04:47:20;104.85;;;58.55;;
23898;SDS011;20544;50.018;20.010;2023-02-08T04:50:36;107.78;;;60.08;;
23898;SDS011;20544;50.018;20.010;2023-02-08T04:53:54;104.80;;;61.53;;
23898;SDS011;20544;50.018;20.010;2023-02-08T04:57:12;109.75;;;61.53;;
23898;SDS011;20544;50.018;20.010;2023-02-08T05:00:28;105.95;;;60.70;;
23898;SDS011;20544;50.018;20.010;2023-02-08T05:03:45;109.63;;;62.53;;
23898;SDS011;20544;50.018;20.010;2023-02-08T05:07:01;118.38;;;62.80;;
23898;SDS011;20544;50.018;20.010;2023-02-08T05:10:18;109.95;;;62.00;;
23898;SDS011;20544;50.018;20.010;2023-02-08T05:13:34;112.85;;;63.10;;
23898;SDS011;20544;50.018;20.010;2023-02-08T05:16:51;113.28;;;62.55;;
23898;SDS011;20544;50.018;20.010;2023-02-08T05:20:07;108.23;;;60.55;;
23898;SDS011;20544;50.018;20.010;2023-02-08T05:23:25;107.10;;;59.80;;
23898;SDS011;20544;50.018;20.010;2023-02-08T05:26:42;114.58;;;62.10;;
23898;SDS011;20544;50.018;20.010;2023-02-08T05:29:58;110.50;;;60.65;;
23898;SDS011;20544;50.018;20.010;2023-02-08T05:33:16;110.60;;;62.20;;
23898;SDS011;20544;50.018;20.010;2023-02-08T05:36:32;113.45;;;63.43;;
23898;SDS011;20544;50.018;20.010;2023-02-08T05:39:48;110.40;;;63.45;;
23898;SDS011;20544;50.018;20.010;2023-02-08T05:43:05;106.40;;;60.53;;
23898;SDS011;20544;50.018;20.010;2023-02-08T05:46:21;109.85;;;62.18;;
23898;SDS011;20544;50.018;20.010;2023-02-08T05:49:37;110.28;;;59.33;;
23898;SDS011;20544;50.018;20.010;2023-02-08T05:52:53;113.23;;;62.93;;
23898;SDS011;20544;50.018;20.010;2023-02-08T05:56:09;109.95;;;62.35;;
23898;SDS011;20544;50.018;20.010;2023-02-08T05:59:26;114.90;;;64.80;;
23898;SDS011;20544;50.018;20.010;2023-02-08T06:02:42;110.95;;;61.58;;
23898;SDS011;20544;50.018;20.010;2023-02-08T06:06:00;114.38;;;63.05;;
23898;SDS011;20544;50.018;20.010;2023-02-08T06:09:17;109.63;;;62.70;;
23898;SDS011;20544;50.018;20.010;2023-02-08T06:12:34;104.90;;;59.10;;
23898;SDS011;20544;50.018;20.010;2023-02-08T06:15:50;113.25;;;61.38;;
23898;SDS011;20544;50.018;20.010;2023-02-08T06:19:06;108.58;;;61.78;;
23898;SDS011;20544;50.018;20.010;2023-02-08T06:22:24;115.55;;;66.38;;
23898;SDS011;20544;50.018;20.010;2023-02-08T06:25:41;110.50;;;63.10;;
23898;SDS011;20544;50.018;20.010;2023-02-08T06:29:00;110.70;;;62.60;;
23898;SDS011;20544;50.018;20.010;2023-02-08T06:32:17;124.25;;;70.35;;
23898;SDS011;20544;50.018;20.010;2023-02-08T06:35:34;123.80;;;70.48;;
23898;SDS011;20544;50.018;20.010;2023-02-08T06:38:50;117.13;;;68.20;;
23898;SDS011;20544;50.018;20.010;2023-02-08T06:42:06;121.08;;;70.65;;
23898;SDS011;20544;50.018;20.010;2023-02-08T06:45:23;132.23;;;74.13;;
23898;SDS011;20544;50.018;20.010;2023-02-08T06:48:41;120.50;;;68.43;;
23898;SDS011;20544;50.018;20.010;2023-02-08T06:51:58;123.10;;;67.38;;
23898;SDS011;20544;50.018;20.010;2023-02-08T06:55:15;114.90;;;65.73;;
23898;SDS011;20544;50.018;20.010;2023-02-08T06:58:32;123.28;;;70.10;;
23898;SDS011;20544;50.018;20.010;2023-02-08T07:01:49;125.63;;;70.40;;
23898;SDS011;20544;50.018;20.010;2023-02-08T07:05:07;128.50;;;71.53;;
23898;SDS011;20544;50.018;20.010;2023-02-08T07:08:24;120.33;;;69.90;;
23898;SDS011;20544;50.018;20.010;2023-02-08T07:11:42;135.48;;;74.48;;
23898;SDS011;20544;50.018;20.010;2023-02-08T07:14:59;131.58;;;75.93;;
23898;SDS011;20544;50.018;20.010;2023-02-08T07:18:18;136.60;;;78.28;;
23898;SDS011;20544;50.018;20.010;2023-02-08T07:21:34;133.28;;;75.38;;
23898;SDS011;20544;50.018;20.010;2023-02-08T07:24:50;139.03;;;78.60;;
23898;SDS011;20544;50.018;20.010;2023-02-08T07:28:07;137.45;;;76.43;;
23898;SDS011;20544;50.018;20.010;2023-02-08T07:31:23;135.35;;;77.40;;
23898;SDS011;20544;50.018;20.010;2023-02-08T07:34:39;142.60;;;81.18;;
23898;SDS011;20544;50.018;20.010;2023-02-08T07:37:56;140.05;;;79.75;;
23898;SDS011;20544;50.018;20.010;2023-02-08T07:41:12;137.00;;;78.63;;
23898;SDS011;20544;50.018;20.010;2023-02-08T07:44:29;134.50;;;75.10;;
23898;SDS011;20544;50.018;20.010;2023-02-08T07:47:46;131.30;;;75.03;;
23898;SDS011;20544;50.018;20.010;2023-02-08T07:51:02;128.83;;;72.83;;
23898;SDS011;20544;50.018;20.010;2023-02-08T07:54:20;127.20;;;69.88;;
23898;SDS011;20544;50.018;20.010;2023-02-08T07:57:36;124.30;;;67.35;;
23898;SDS011;20544;50.018;20.010;2023-02-08T08:00:53;117.78;;;63.55;;
23898;SDS011;20544;50.018;20.010;2023-02-08T08:04:13;118.05;;;64.40;;
23898;SDS011;20544;50.018;20.010;2023-02-08T08:07:30;118.30;;;63.85;;
23898;SDS011;20544;50.018;20.010;2023-02-08T08:10:46;110.90;;;60.80;;
23898;SDS011;20544;50.018;20.010;2023-02-08T08:14:08;100.40;;;57.33;;
23898;SDS011;20544;50.018;20.010;2023-02-08T08:17:25;87.98;;;49.28;;
23898;SDS011;20544;50.018;20.010;2023-02-08T08:20:41;83.90;;;46.20;;
23898;SDS011;20544;50.018;20.010;2023-02-08T08:23:57;87.78;;;48.45;;
23898;SDS011;20544;50.018;20.010;2023-02-08T08:27:13;79.43;;;42.93;;
23898;SDS011;20544;50.018;20.010;2023-02-08T08:30:30;76.35;;;43.65;;
23898;SDS011;20544;50.018;20.010;2023-02-08T08:33:46;77.13;;;41.95;;
23898;SDS011;20544;50.018;20.010;2023-02-08T08:37:03;79.68;;;42.45;;
23898;SDS011;20544;50.018;20.010;2023-02-08T08:40:20;74.48;;;39.63;;
23898;SDS011;20544;50.018;20.010;2023-02-08T08:43:36;70.65;;;36.70;;
23898;SDS011;20544;50.018;20.010;2023-02-08T08:46:54;67.98;;;38.65;;
23898;SDS011;20544;50.018;20.010;2023-02-08T08:50:12;76.40;;;39.25;;
23898;SDS011;20544;50.018;20.010;2023-02-08T08:53:29;74.70;;;38.23;;
23898;SDS011;20544;50.018;20.010;2023-02-08T08:56:45;75.03;;;38.80;;
23898;SDS011;20544;50.018;20.010;2023-02-08T09:00:02;71.60;;;37.83;;
23898;SDS011;20544;50.018;20.010;2023-02-08T09:03:21;80.55;;;41.58;;
23898;SDS011;20544;50.018;20.010;2023-02-08T09:06:38;83.88;;;41.65;;
23898;SDS011;20544;50.018;20.010;2023-02-08T09:09:54;83.28;;;42.63;;
23898;SDS011;20544;50.018;20.010;2023-02-08T09:13:11;72.63;;;38.53;;
23898;SDS011;20544;50.018;20.010;2023-02-08T09:16:28;75.73;;;40.23;;
23898;SDS011;20544;50.018;20.010;2023-02-08T09:19:45;94.93;;;49.05;;
23898;SDS011;20544;50.018;20.010;2023-02-08T09:23:02;86.93;;;42.33;;
23898;SDS011;20544;50.018;20.010;2023-02-08T09:26:18;67.15;;;34.63;;
23898;SDS011;20544;50.018;20.010;2023-02-08T09:29:35;66.28;;;35.70;;
23898;SDS011;20544;50.018;20.010;2023-02-08T09:32:52;62.10;;;32.08;;
23898;SDS011;20544;50.018;20.010;2023-02-08T09:36:09;57.38;;;29.83;;
23898;SDS011;20544;50.018;20.010;2023-02-08T09:42:42;51.78;;;27.08;;
23898;SDS011;20544;50.018;20.010;2023-02-08T09:46:04;50.45;;;27.30;;
23898;SDS011;20544;50.018;20.010;2023-02-08T09:49:27;49.68;;;26.45;;
23898;SDS011;20544;50.018;20.010;2023-02-08T09:52:49;50.13;;;27.13;;
23898;SDS011;20544;50.018;20.010;2023-02-08T09:56:10;47.73;;;27.13;;
23898;SDS011;20544;50.018;20.010;2023-02-08T09:59:31;47.40;;;25.85;;
23898;SDS011;20544;50.018;20.010;2023-02-08T10:02:49;47.05;;;26.85;;
23898;SDS011;20544;50.018;20.010;2023-02-08T10:06:10;55.68;;;30.55;;
23898;SDS011;20544;50.018;20.010;2023-02-08T10:09:29;43.68;;;26.03;;
23898;SDS011;20544;50.018;20.010;2023-02-08T10:16:08;47.58;;;26.65;;
23898;SDS011;20544;50.018;20.010;2023-02-08T10:27:07;42.05;;;23.53;;
23898;SDS011;20544;50.018;20.010;2023-02-08T10:30:29;41.00;;;23.08;;
23898;SDS011;20544;50.018;20.010;2023-02-08T10:33:53;45.80;;;25.03;;
23898;SDS011;20544;50.018;20.010;2023-02-08T10:37:20;40.95;;;21.85;;
23898;SDS011;20544;50.018;20.010;2023-02-08T10:40:52;32.53;;;17.88;;
23898;SDS011;20544;50.018;20.010;2023-02-08T10:44:16;22.48;;;13.05;;
23898;SDS011;20544;50.018;20.010;2023-02-08T10:47:41;23.53;;;13.55;;
23898;SDS011;20544;50.018;20.010;2023-02-08T10:51:15;24.28;;;14.40;;
23898;SDS011;20544;50.018;20.010;2023-02-08T10:54:39;25.80;;;15.18;;
23898;SDS011;20544;50.018;20.010;2023-02-08T10:57:57;28.78;;;16.35;;
23898;SDS011;20544;50.018;20.010;2023-02-08T11:01:17;106.93;;;57.10;;
23898;SDS011;20544;50.018;20.010;2023-02-08T11:04:36;35.35;;;19.65;;
23898;SDS011;20544;50.018;20.010;2023-02-08T11:08:11;25.58;;;16.28;;
23898;SDS011;20544;50.018;20.010;2023-02-08T11:11:35;31.18;;;17.73;;
23898;SDS011;20544;50.018;20.010;2023-02-08T11:14:59;30.13;;;18.58;;
23898;SDS011;20544;50.018;20.010;2023-02-08T11:18:18;27.33;;;17.15;;
23898;SDS011;20544;50.018;20.010;2023-02-08T11:21:38;26.15;;;15.10;;
23898;SDS011;20544;50.018;20.010;2023-02-08T11:24:57;25.78;;;15.33;;
23898;SDS011;20544;50.018;20.010;2023-02-08T11:28:25;25.13;;;14.90;;
23898;SDS011;20544;50.018;20.010;2023-02-08T11:31:55;24.03;;;13.73;;
23898;SDS011;20544;50.018;20.010;2023-02-08T11:35:18;24.03;;;14.03;;
23898;SDS011;20544;50.018;20.010;2023-02-08T11:38:39;21.55;;;12.75;;
23898;SDS011;20544;50.018;20.010;2023-02-08T11:41:58;18.05;;;11.40;;
23898;SDS011;20544;50.018;20.010;2023-02-08T11:45:20;19.50;;;12.83;;
23898;SDS011;20544;50.018;20.010;2023-02-08T11:48:42;19.25;;;11.88;;
23898;SDS011;20544;50.018;20.010;2023-02-08T11:52:06;18.00;;;11.35;;
23898;SDS011;20544;50.018;20.010;2023-02-08T11:55:48;19.40;;;12.00;;
23898;SDS011;20544;50.018;20.010;2023-02-08T11:59:18;18.03;;;11.60;;
23898;SDS011;20544;50.018;20.010;2023-02-08T12:05:53;17.30;;;11.20;;
23898;SDS011;20544;50.018;20.010;2023-02-08T12:09:19;18.75;;;11.65;;
23898;SDS011;20544;50.018;20.010;2023-02-08T12:17:06;17.65;;;11.25;;
23898;SDS011;20544;50.018;20.010;2023-02-08T12:20:38;108.70;;;60.75;;
23898;SDS011;20544;50.018;20.010;2023-02-08T12:24:10;23.23;;;13.48;;
23898;SDS011;20544;50.018;20.010;2023-02-08T12:27:37;18.48;;;11.90;;
23898;SDS011;20544;50.018;20.010;2023-02-08T12:30:59;19.78;;;12.65;;
23898;SDS011;20544;50.018;20.010;2023-02-08T12:34:21;19.25;;;11.75;;
23898;SDS011;20544;50.018;20.010;2023-02-08T12:37:49;19.80;;;12.65;;
23898;SDS011;20544;50.018;20.010;2023-02-08T12:41:22;18.68;;;12.40;;
23898;SDS011;20544;50.018;20.010;2023-02-08T12:44:48;23.68;;;14.98;;
23898;SDS011;20544;50.018;20.010;2023-02-08T12:48:31;17.20;;;11.93;;
23898;SDS011;20544;50.018;20.010;2023-02-08T12:51:56;27.20;;;13.28;;
23898;SDS011;20544;50.018;20.010;2023-02-08T12:55:19;22.15;;;12.93;;
23898;SDS011;20544;50.018;20.010;2023-02-08T12:58:39;23.55;;;13.60;;
23898;SDS011;20544;50.018;20.010;2023-02-08T13:02:03;24.33;;;14.00;;
23898;SDS011;20544;50.018;20.010;2023-02-08T13:05:27;19.98;;;12.88;;
23898;SDS011;20544;50.018;20.010;2023-02-08T13:08:52;23.00;;;14.38;;
23898;SDS011;20544;50.018;20.010;2023-02-08T13:12:12;27.88;;;16.48;;
23898;SDS011;20544;50.018;20.010;2023-02-08T13:15:34;29.05;;;18.38;;
23898;SDS011;20544;50.018;20.010;2023-02-08T13:18:54;31.58;;;18.43;;
23898;SDS011;20544;50.018;20.010;2023-02-08T13:22:20;30.58;;;18.68;;
23898;SDS011;20544;50.018;20.010;2023-02-08T13:25:38;28.08;;;18.55;;
23898;SDS011;20544;50.018;20.010;2023-02-08T13:28:56;28.70;;;18.98;;
23898;SDS011;20544;50.018;20.010;2023-02-08T13:32:16;26.95;;;17.18;;
23898;SDS011;20544;50.018;20.010;2023-02-08T13:35:38;28.83;;;18.00;;
23898;SDS011;20544;50.018;20.010;2023-02-08T13:42:22;26.95;;;16.55;;
23898;SDS011;20544;50.018;20.010;2023-02-08T13:45:49;24.30;;;16.45;;
23898;SDS011;20544;50.018;20.010;2023-02-08T13:49:10;25.18;;;15.65;;
23898;SDS011;20544;50.018;20.010;2023-02-08T13:52:58;25.58;;;16.38;;
23898;SDS011;20544;50.018;20.010;2023-02-08T13:56:21;27.60;;;17.60;;
23898;SDS011;20544;50.018;20.010;2023-02-08T14:00:03;24.48;;;16.05;;
23898;SDS011;20544;50.018;20.010;2023-02-08T14:03:36;22.78;;;16.18;;
23898;SDS011;20544;50.018;20.010;2023-02-08T14:06:54;23.38;;;15.45;;
23898;SDS011;20544;50.018;20.010;2023-02-08T14:10:22;21.23;;;15.38;;
23898;SDS011;20544;50.018;20.010;2023-02-08T14:13:47;20.20;;;14.35;;
23898;SDS011;20544;50.018;20.010;2023-02-08T14:17:32;25.15;;;15.53;;
23898;SDS011;20544;50.018;20.010;2023-02-08T14:20:56;24.75;;;16.30;;
23898;SDS011;20544;50.018;20.010;2023-02-08T14:24:20;24.83;;;16.08;;
23898;SDS011;20544;50.018;20.010;2023-02-08T14:27:40;23.35;;;16.08;;
23898;SDS011;20544;50.018;20.010;2023-02-08T14:31:03;24.05;;;15.53;;
23898;SDS011;20544;50.018;20.010;2023-02-08T14:34:30;22.98;;;15.83;;
23898;SDS011;20544;50.018;20.010;2023-02-08T14:37:46;23.88;;;14.83;;
23898;SDS011;20544;50.018;20.010;2023-02-08T14:41:08;22.80;;;15.40;;
23898;SDS011;20544;50.018;20.010;2023-02-08T14:48:18;24.35;;;15.28;;
23898;SDS011;20544;50.018;20.010;2023-02-08T14:51:39;23.10;;;14.03;;
23898;SDS011;20544;50.018;20.010;2023-02-08T14:55:06;21.98;;;14.08;;
23898;SDS011;20544;50.018;20.010;2023-02-08T14:58:39;76.50;;;39.23;;
23898;SDS011;20544;50.018;20.010;2023-02-08T15:02:13;30.48;;;19.18;;
23898;SDS011;20544;50.018;20.010;2023-02-08T15:05:36;24.60;;;14.88;;
23898;SDS011;20544;50.018;20.010;2023-02-08T15:08:57;22.10;;;14.15;;
23898;SDS011;20544;50.018;20.010;2023-02-08T15:12:22;22.13;;;13.90;;
23898;SDS011;20544;50.018;20.010;2023-02-08T15:15:42;21.70;;;13.33;;
23898;SDS011;20544;50.018;20.010;2023-02-08T15:19:03;20.90;;;13.63;;
23898;SDS011;20544;50.018;20.010;2023-02-08T15:22:34;17.65;;;12.13;;
23898;SDS011;20544;50.018;20.010;2023-02-08T15:25:55;19.85;;;11.98;;
23898;SDS011;20544;50.018;20.010;2023-02-08T15:29:19;18.83;;;12.03;;
23898;SDS011;20544;50.018;20.010;2023-02-08T15:32:42;18.25;;;12.18;;
23898;SDS011;20544;50.018;20.010;2023-02-08T15:36:06;19.45;;;12.23;;
23898;SDS011;20544;50.018;20.010;2023-02-08T15:39:33;17.60;;;12.63;;
23898;SDS011;20544;50.018;20.010;2023-02-08T15:46:17;17.68;;;12.23;;
23898;SDS011;20544;50.018;20.010;2023-02-08T15:49:40;20.25;;;12.85;;
23898;SDS011;20544;50.018;20.010;2023-02-08T15:53:05;19.78;;;12.15;;
23898;SDS011;20544;50.018;20.010;2023-02-08T15:56:26;18.58;;;12.55;;
23898;SDS011;20544;50.018;20.010;2023-02-08T15:59:48;19.10;;;11.98;;
23898;SDS011;20544;50.018;20.010;2023-02-08T16:03:14;16.55;;;11.50;;
23898;SDS011;20544;50.018;20.010;2023-02-08T16:06:46;20.38;;;13.35;;
23898;SDS011;20544;50.018;20.010;2023-02-08T16:10:16;22.18;;;14.50;;
23898;SDS011;20544;50.018;20.010;2023-02-08T16:13:40;19.00;;;12.58;;
23898;SDS011;20544;50.018;20.010;2023-02-08T16:17:02;17.20;;;11.55;;
23898;SDS011;20544;50.018;20.010;2023-02-08T16:20:32;20.90;;;13.15;;
23898;SDS011;20544;50.018;20.010;2023-02-08T16:23:52;17.87;;;12.20;;
23898;SDS011;20544;50.018;20.010;2023-02-08T16:27:24;21.65;;;13.85;;
23898;SDS011;20544;50.018;20.010;2023-02-08T16:31:17;22.48;;;15.20;;
23898;SDS011;20544;50.018;20.010;2023-02-08T16:34:37;24.28;;;15.18;;
23898;SDS011;20544;50.018;20.010;2023-02-08T16:37:58;25.05;;;16.23;;
23898;SDS011;20544;50.018;20.010;2023-02-08T16:41:20;23.18;;;15.80;;
23898;SDS011;20544;50.018;20.010;2023-02-08T16:44:55;25.58;;;16.43;;
23898;SDS011;20544;50.018;20.010;2023-02-08T16:48:29;26.25;;;16.65;;
23898;SDS011;20544;50.018;20.010;2023-02-08T16:51:50;30.05;;;19.23;;
23898;SDS011;20544;50.018;20.010;2023-02-08T16:55:18;26.63;;;17.08;;
23898;SDS011;20544;50.018;20.010;2023-02-08T16:58:37;33.70;;;20.33;;
23898;SDS011;20544;50.018;20.010;2023-02-08T17:01:56;33.60;;;19.55;;
23898;SDS011;20544;50.018;20.010;2023-02-08T17:05:27;170.75;;;91.28;;
23898;SDS011;20544;50.018;20.010;2023-02-08T17:08:48;45.00;;;25.98;;
23898;SDS011;20544;50.018;20.010;2023-02-08T17:12:09;38.35;;;22.98;;
23898;SDS011;20544;50.018;20.010;2023-02-08T17:15:28;43.98;;;22.88;;
23898;SDS011;20544;50.018;20.010;2023-02-08T17:18:44;34.98;;;21.93;;
23898;SDS011;20544;50.018;20.010;2023-02-08T17:22:01;36.38;;;22.10;;
23898;SDS011;20544;50.018;20.010;2023-02-08T17:25:17;33.93;;;21.13;;
23898;SDS011;20544;50.018;20.010;2023-02-08T17:28:35;36.88;;;22.18;;
23898;SDS011;20544;50.018;20.010;2023-02-08T17:31:51;38.23;;;23.02;;
23898;SDS011;20544;50.018;20.010;2023-02-08T17:35:07;35.55;;;22.35;;
23898;SDS011;20544;50.018;20.010;2023-02-08T17:38:29;36.63;;;22.10;;
23898;SDS011;20544;50.018;20.010;2023-02-08T17:41:51;40.53;;;24.98;;
23898;SDS011;20544;50.018;20.010;2023-02-08T17:45:09;42.23;;;23.95;;
23898;SDS011;20544;50.018;20.010;2023-02-08T17:48:25;40.35;;;25.13;;
23898;SDS011;20544;50.018;20.010;2023-02-08T17:51:42;45.53;;;27.35;;
23898;SDS011;20544;50.018;20.010;2023-02-08T17:55:01;36.25;;;23.50;;
23898;SDS011;20544;50.018;20.010;2023-02-08T17:58:20;42.70;;;24.50;;
23898;SDS011;20544;50.018;20.010;2023-02-08T18:01:37;38.38;;;23.18;;
23898;SDS011;20544;50.018;20.010;2023-02-08T18:04:53;38.35;;;24.45;;
23898;SDS011;20544;50.018;20.010;2023-02-08T18:08:10;42.43;;;27.10;;
23898;SDS011;20544;50.018;20.010;2023-02-08T18:11:27;40.80;;;25.23;;
23898;SDS011;20544;50.018;20.010;2023-02-08T18:14:44;34.28;;;22.20;;
23898;SDS011;20544;50.018;20.010;2023-02-08T18:18:01;38.53;;;24.13;;
23898;SDS011;20544;50.018;20.010;2023-02-08T18:21:21;37.43;;;23.20;;
23898;SDS011;20544;50.018;20.010;2023-02-08T18:24:39;41.30;;;25.90;;
23898;SDS011;20544;50.018;20.010;2023-02-08T18:27:56;35.70;;;23.80;;
23898;SDS011;20544;50.018;20.010;2023-02-08T18:31:15;38.20;;;24.73;;
23898;SDS011;20544;50.018;20.010;2023-02-08T18:34:34;39.33;;;24.38;;
23898;SDS011;20544;50.018;20.010;2023-02-08T18:37:54;39.25;;;24.90;;
23898;SDS011;20544;50.018;20.010;2023-02-08T18:41:14;39.43;;;25.35;;
23898;SDS011;20544;50.018;20.010;2023-02-08T18:44:33;45.80;;;27.73;;
23898;SDS011;20544;50.018;20.010;2023-02-08T18:47:51;47.30;;;28.98;;
23898;SDS011;20544;50.018;20.010;2023-02-08T18:51:08;46.80;;;29.73;;
23898;SDS011;20544;50.018;20.010;2023-02-08T18:54:30;46.78;;;28.83;;
23898;SDS011;20544;50.018;20.010;2023-02-08T18:57:51;51.73;;;29.93;;
23898;SDS011;20544;50.018;20.010;2023-02-08T19:01:08;46.18;;;29.78;;
23898;SDS011;20544;50.018;20.010;2023-02-08T19:04:27;44.38;;;27.18;;
23898;SDS011;20544;50.018;20.010;2023-02-08T19:07:46;45.30;;;27.03;;
23898;SDS011;20544;50.018;20.010;2023-02-08T19:11:03;43.33;;;27.00;;
23898;SDS011;20544;50.018;20.010;2023-02-08T19:14:30;47.95;;;28.73;;
23898;SDS011;20544;50.018;20.010;2023-02-08T19:17:47;47.65;;;28.63;;
23898;SDS011;20544;50.018;20.010;2023-02-08T19:21:06;57.45;;;34.33;;
23898;SDS011;20544;50.018;20.010;2023-02-08T19:24:26;62.23;;;36.50;;
23898;SDS011;20544;50.018;20.010;2023-02-08T19:27:51;57.48;;;34.45;;
23898;SDS011;20544;50.018;20.010;2023-02-08T19:31:09;54.25;;;33.28;;
23898;SDS011;20544;50.018;20.010;2023-02-08T19:34:32;76.68;;;42.30;;
23898;SDS011;20544;50.018;20.010;2023-02-08T19:37:49;81.13;;;47.40;;
23898;SDS011;20544;50.018;20.010;2023-02-08T19:41:05;85.43;;;50.25;;
23898;SDS011;20544;50.018;20.010;2023-02-08T19:44:26;87.93;;;49.73;;
23898;SDS011;20544;50.018;20.010;2023-02-08T19:47:43;76.60;;;46.03;;
23898;SDS011;20544;50.018;20.010;2023-02-08T19:51:02;89.73;;;52.63;;
23898;SDS011;20544;50.018;20.010;2023-02-08T19:54:22;100.80;;;59.38;;